sensor_id;sensor_type;location;lat;lon;timestamp;pressure;altitude;pressure_sealevel;temperature;humidity
64610;BME280;51019;46.090;6.350;2023-12-20T00:01:06;97038.41;;;4.69;100.00
64610;BME280;51019;46.090;6.350;2023-12-20T00:03:57;97055.75;;;5.09;100.00
64610;BME280;51019;46.090;6.350;2023-12-20T00:06:29;97049.66;;;5.37;100.00
64610;BME280;51019;46.090;6.350;2023-12-20T00:09:04;97033.84;;;5.28;100.00
64610;BME280;51019;46.090;6.350;2023-12-20T00:11:36;96978.38;;;5.15;100.00
64610;BME280;51019;46.090;6.350;2023-12-20T00:14:12;97039.41;;;5.75;100.00
64610;BME280;51019;46.090;6.350;2023-12-20T00:16:41;97020.34;;;5.75;100.00
64610;BME280;51019;46.090;6.350;2023-12-20T00:22:33;96959.78;;;5.60;100.00
64610;BME280;51019;46.090;6.350;2023-12-20T00:25:25;97070.53;;;5.90;100.00
64610;BME280;51019;46.090;6.350;2023-12-20T00:27:55;96987.50;;;5.99;100.00
64610;BME280;51019;46.090;6.350;2023-12-20T00:30:22;97022.91;;;6.02;100.00
64610;BME280;51019;46.090;6.350;2023-12-20T00:33:06;96963.94;;;5.23;100.00
64610;BME280;51019;46.090;6.350;2023-12-20T00:35:39;96986.72;;;5.59;100.00
64610;BME280;51019;46.090;6.350;2023-12-20T00:38:08;96990.56;;;5.66;100.00
64610;BME280;51019;46.090;6.350;2023-12-20T00:40:44;97027.94;;;6.30;100.00
64610;BME280;51019;46.090;6.350;2023-12-20T00:43:12;96924.00;;;5.64;100.00
64610;BME280;51019;46.090;6.350;2023-12-20T00:45:47;96900.06;;;5.46;100.00
64610;BME280;51019;46.090;6.350;2023-12-20T00:48:19;96996.63;;;5.79;100.00
64610;BME280;51019;46.090;6.350;2023-12-20T00:50:46;96986.28;;;5.65;100.00
64610;BME280;51019;46.090;6.350;2023-12-20T00:53:18;96967.13;;;5.41;100.00
64610;BME280;51019;46.090;6.350;2023-12-20T00:55:49;96973.78;;;5.45;100.00
64610;BME280;51019;46.090;6.350;2023-12-20T00:58:29;97036.66;;;6.16;100.00
64610;BME280;51019;46.090;6.350;2023-12-20T01:01:08;96992.16;;;5.42;100.00
64610;BME280;51019;46.090;6.350;2023-12-20T01:03:38;96983.00;;;5.63;100.00
64610;BME280;51019;46.090;6.350;2023-12-20T01:06:10;96954.72;;;5.32;100.00
64610;BME280;51019;46.090;6.350;2023-12-20T01:08:58;96962.91;;;5.26;100.00
64610;BME280;51019;46.090;6.350;2023-12-20T01:11:27;97037.59;;;5.76;100.00
64610;BME280;51019;46.090;6.350;2023-12-20T01:14:02;97029.09;;;5.74;100.00
64610;BME280;51019;46.090;6.350;2023-12-20T01:16:38;97008.94;;;5.51;100.00
64610;BME280;51019;46.090;6.350;2023-12-20T01:19:08;97036.34;;;4.74;100.00
64610;BME280;51019;46.090;6.350;2023-12-20T01:21:36;96955.28;;;4.28;100.00
64610;BME280;51019;46.090;6.350;2023-12-20T01:24:09;96997.03;;;4.66;100.00
64610;BME280;51019;46.090;6.350;2023-12-20T01:26:42;97030.97;;;5.45;100.00
64610;BME280;51019;46.090;6.350;2023-12-20T01:29:13;96992.56;;;4.82;100.00
64610;BME280;51019;46.090;6.350;2023-12-20T01:31:49;96966.47;;;4.57;100.00
64610;BME280;51019;46.090;6.350;2023-12-20T01:34:22;97026.09;;;4.99;100.00
64610;BME280;51019;46.090;6.350;2023-12-20T01:36:50;96990.16;;;4.79;100.00
64610;BME280;51019;46.090;6.350;2023-12-20T01:39:32;96968.03;;;4.59;100.00
64610;BME280;51019;46.090;6.350;2023-12-20T01:42:10;97025.63;;;5.61;100.00
64610;BME280;51019;46.090;6.350;2023-12-20T01:44:40;96945.38;;;5.42;100.00
64610;BME280;51019;46.090;6.350;2023-12-20T01:47:18;97061.00;;;5.36;100.00
64610;BME280;51019;46.090;6.350;2023-12-20T01:50:07;97037.16;;;4.74;100.00
64610;BME280;51019;46.090;6.350;2023-12-20T01:52:41;97032.38;;;5.09;100.00
64610;BME280;51019;46.090;6.350;2023-12-20T01:55:22;96968.53;;;4.79;100.00
64610;BME280;51019;46.090;6.350;2023-12-20T01:57:59;96958.19;;;4.64;100.00
64610;BME280;51019;46.090;6.350;2023-12-20T02:00:41;96972.31;;;4.87;100.00
64610;BME280;51019;46.090;6.350;2023-12-20T02:03:11;96963.22;;;4.53;100.00
64610;BME280;51019;46.090;6.350;2023-12-20T02:05:44;96993.91;;;4.61;100.00
64610;BME280;51019;46.090;6.350;2023-12-20T02:08:19;97073.81;;;4.84;100.00
64610;BME280;51019;46.090;6.350;2023-12-20T02:11:06;96959.81;;;4.24;100.00
64610;BME280;51019;46.090;6.350;2023-12-20T02:13:38;97029.72;;;4.97;100.00
64610;BME280;51019;46.090;6.350;2023-12-20T02:16:15;96996.09;;;4.81;100.00
64610;BME280;51019;46.090;6.350;2023-12-20T02:18:44;97036.06;;;4.93;100.00
64610;BME280;51019;46.090;6.350;2023-12-20T02:24:06;97040.97;;;5.24;100.00
64610;BME280;51019;46.090;6.350;2023-12-20T02:26:34;97074.38;;;5.57;100.00
64610;BME280;51019;46.090;6.350;2023-12-20T02:29:14;96956.28;;;4.95;100.00
64610;BME280;51019;46.090;6.350;2023-12-20T02:31:42;96977.66;;;4.98;100.00
64610;BME280;51019;46.090;6.350;2023-12-20T02:34:15;96996.53;;;4.88;100.00
64610;BME280;51019;46.090;6.350;2023-12-20T02:36:42;96966.34;;;4.99;100.00
64610;BME280;51019;46.090;6.350;2023-12-20T02:39:22;97017.31;;;5.68;100.00
64610;BME280;51019;46.090;6.350;2023-12-20T02:41:56;97017.38;;;5.94;100.00
64610;BME280;51019;46.090;6.350;2023-12-20T02:44:33;97055.16;;;5.99;100.00
64610;BME280;51019;46.090;6.350;2023-12-20T02:47:04;96988.63;;;5.43;100.00
64610;BME280;51019;46.090;6.350;2023-12-20T02:49:33;96981.19;;;5.51;100.00
64610;BME280;51019;46.090;6.350;2023-12-20T02:52:00;96997.69;;;5.10;100.00
64610;BME280;51019;46.090;6.350;2023-12-20T02:54:30;96940.41;;;4.58;100.00
64610;BME280;51019;46.090;6.350;2023-12-20T02:57:00;97006.81;;;5.03;100.00
64610;BME280;51019;46.090;6.350;2023-12-20T02:59:30;96992.31;;;4.72;100.00
64610;BME280;51019;46.090;6.350;2023-12-20T03:02:00;97048.38;;;5.03;100.00
64610;BME280;51019;46.090;6.350;2023-12-20T03:04:31;96936.38;;;4.40;100.00
64610;BME280;51019;46.090;6.350;2023-12-20T03:06:59;97042.59;;;5.13;100.00
64610;BME280;51019;46.090;6.350;2023-12-20T03:09:26;97040.75;;;5.41;100.00
64610;BME280;51019;46.090;6.350;2023-12-20T03:11:57;96969.09;;;5.10;100.00
64610;BME280;51019;46.090;6.350;2023-12-20T03:14:24;97032.59;;;5.60;100.00
64610;BME280;51019;46.090;6.350;2023-12-20T03:16:53;96930.06;;;5.25;100.00
64610;BME280;51019;46.090;6.350;2023-12-20T03:19:21;96922.81;;;5.42;100.00
64610;BME280;51019;46.090;6.350;2023-12-20T03:21:48;97050.47;;;5.65;100.00
64610;BME280;51019;46.090;6.350;2023-12-20T03:24:15;96972.84;;;5.06;100.00
64610;BME280;51019;46.090;6.350;2023-12-20T03:26:43;96961.00;;;4.61;100.00
64610;BME280;51019;46.090;6.350;2023-12-20T03:29:12;96994.09;;;4.99;100.00
64610;BME280;51019;46.090;6.350;2023-12-20T03:31:41;96991.66;;;5.37;100.00
64610;BME280;51019;46.090;6.350;2023-12-20T03:34:09;96997.53;;;5.26;100.00
64610;BME280;51019;46.090;6.350;2023-12-20T03:36:36;96943.66;;;5.16;100.00
64610;BME280;51019;46.090;6.350;2023-12-20T03:39:04;97013.50;;;5.20;100.00
64610;BME280;51019;46.090;6.350;2023-12-20T03:41:32;96970.78;;;5.51;100.00
64610;BME280;51019;46.090;6.350;2023-12-20T03:44:00;97039.28;;;6.29;100.00
64610;BME280;51019;46.090;6.350;2023-12-20T03:46:37;96967.19;;;5.27;100.00
64610;BME280;51019;46.090;6.350;2023-12-20T03:49:04;97042.97;;;5.60;100.00
64610;BME280;51019;46.090;6.350;2023-12-20T03:51:32;97033.81;;;5.55;100.00
64610;BME280;51019;46.090;6.350;2023-12-20T03:53:59;96927.88;;;4.92;100.00
64610;BME280;51019;46.090;6.350;2023-12-20T03:56:27;97002.63;;;5.67;100.00
64610;BME280;51019;46.090;6.350;2023-12-20T03:58:54;96971.53;;;5.66;100.00
64610;BME280;51019;46.090;6.350;2023-12-20T04:01:21;97005.81;;;5.85;100.00
64610;BME280;51019;46.090;6.350;2023-12-20T04:03:50;96979.16;;;5.42;100.00
64610;BME280;51019;46.090;6.350;2023-12-20T04:06:18;96993.75;;;5.44;100.00
64610;BME280;51019;46.090;6.350;2023-12-20T04:08:45;96980.78;;;5.57;100.00
64610;BME280;51019;46.090;6.350;2023-12-20T04:11:13;96987.38;;;5.09;100.00
64610;BME280;51019;46.090;6.350;2023-12-20T04:13:40;97016.63;;;5.39;100.00
64610;BME280;51019;46.090;6.350;2023-12-20T04:16:07;97036.88;;;5.74;100.00
64610;BME280;51019;46.090;6.350;2023-12-20T04:18:34;97022.78;;;5.91;100.00
64610;BME280;51019;46.090;6.350;2023-12-20T04:21:04;97024.91;;;6.24;100.00
64610;BME280;51019;46.090;6.350;2023-12-20T04:23:32;96914.63;;;5.48;100.00
64610;BME280;51019;46.090;6.350;2023-12-20T04:25:59;97025.13;;;6.21;100.00
64610;BME280;51019;46.090;6.350;2023-12-20T04:28:26;97023.16;;;5.72;100.00
64610;BME280;51019;46.090;6.350;2023-12-20T04:30:55;97029.31;;;5.83;100.00
64610;BME280;51019;46.090;6.350;2023-12-20T04:33:22;96953.47;;;5.25;100.00
64610;BME280;51019;46.090;6.350;2023-12-20T04:35:50;97006.84;;;5.43;100.00
64610;BME280;51019;46.090;6.350;2023-12-20T04:38:19;96970.63;;;5.27;100.00
64610;BME280;51019;46.090;6.350;2023-12-20T04:40:46;96963.34;;;5.32;100.00
64610;BME280;51019;46.090;6.350;2023-12-20T04:43:14;96965.31;;;5.29;100.00
64610;BME280;51019;46.090;6.350;2023-12-20T04:45:41;96930.03;;;5.12;100.00
64610;BME280;51019;46.090;6.350;2023-12-20T04:48:09;96968.47;;;5.46;100.00
64610;BME280;51019;46.090;6.350;2023-12-20T04:50:36;96952.44;;;5.27;100.00
64610;BME280;51019;46.090;6.350;2023-12-20T04:53:03;96976.06;;;5.10;100.00
64610;BME280;51019;46.090;6.350;2023-12-20T04:55:32;96913.78;;;4.96;100.00
64610;BME280;51019;46.090;6.350;2023-12-20T04:57:59;96943.34;;;5.20;100.00
64610;BME280;51019;46.090;6.350;2023-12-20T05:00:27;96934.47;;;5.37;100.00
64610;BME280;51019;46.090;6.350;2023-12-20T05:02:54;97006.28;;;6.30;100.00
64610;BME280;51019;46.090;6.350;2023-12-20T05:05:21;96959.81;;;6.24;100.00
64610;BME280;51019;46.090;6.350;2023-12-20T05:07:48;96915.25;;;5.77;100.00
64610;BME280;51019;46.090;6.350;2023-12-20T05:10:16;97035.09;;;6.27;100.00
64610;BME280;51019;46.090;6.350;2023-12-20T05:12:45;97029.88;;;5.62;100.00
64610;BME280;51019;46.090;6.350;2023-12-20T05:15:12;96993.44;;;5.49;100.00
64610;BME280;51019;46.090;6.350;2023-12-20T05:17:39;96915.09;;;4.89;100.00
64610;BME280;51019;46.090;6.350;2023-12-20T05:20:08;96989.13;;;5.08;100.00
64610;BME280;51019;46.090;6.350;2023-12-20T05:22:37;96947.78;;;4.64;100.00
64610;BME280;51019;46.090;6.350;2023-12-20T05:25:08;97004.47;;;4.99;100.00
64610;BME280;51019;46.090;6.350;2023-12-20T05:27:45;97011.75;;;5.21;100.00
64610;BME280;51019;46.090;6.350;2023-12-20T05:30:21;96984.06;;;5.07;100.00
64610;BME280;51019;46.090;6.350;2023-12-20T05:32:50;96993.31;;;5.11;100.00
64610;BME280;51019;46.090;6.350;2023-12-20T05:35:21;96924.91;;;4.71;100.00
64610;BME280;51019;46.090;6.350;2023-12-20T05:37:51;97001.66;;;5.16;100.00
64610;BME280;51019;46.090;6.350;2023-12-20T05:40:18;96972.53;;;5.11;100.00
64610;BME280;51019;46.090;6.350;2023-12-20T05:42:48;97001.84;;;5.40;100.00
64610;BME280;51019;46.090;6.350;2023-12-20T05:45:35;97007.66;;;5.43;100.00
64610;BME280;51019;46.090;6.350;2023-12-20T05:48:06;97050.47;;;5.65;100.00
64610;BME280;51019;46.090;6.350;2023-12-20T05:50:34;97026.41;;;5.48;100.00
64610;BME280;51019;46.090;6.350;2023-12-20T05:53:26;96958.38;;;5.42;100.00
64610;BME280;51019;46.090;6.350;2023-12-20T05:55:58;96982.00;;;5.91;100.00
64610;BME280;51019;46.090;6.350;2023-12-20T05:58:27;97023.63;;;5.91;100.00
64610;BME280;51019;46.090;6.350;2023-12-20T06:00:55;96997.72;;;6.28;100.00
64610;BME280;51019;46.090;6.350;2023-12-20T06:03:22;97047.59;;;6.60;100.00
64610;BME280;51019;46.090;6.350;2023-12-20T06:05:49;97038.75;;;6.62;100.00
64610;BME280;51019;46.090;6.350;2023-12-20T06:08:16;97068.13;;;6.77;100.00
64610;BME280;51019;46.090;6.350;2023-12-20T06:10:44;97087.16;;;6.77;100.00
64610;BME280;51019;46.090;6.350;2023-12-20T06:13:11;97016.34;;;6.22;100.00
64610;BME280;51019;46.090;6.350;2023-12-20T06:15:41;97023.13;;;6.11;100.00
64610;BME280;51019;46.090;6.350;2023-12-20T06:18:08;97022.00;;;5.63;100.00
64610;BME280;51019;46.090;6.350;2023-12-20T06:20:36;96983.75;;;5.11;100.00
64610;BME280;51019;46.090;6.350;2023-12-20T06:23:04;97091.00;;;5.55;100.00
64610;BME280;51019;46.090;6.350;2023-12-20T06:25:31;97009.88;;;4.96;100.00
64610;BME280;51019;46.090;6.350;2023-12-20T06:27:58;97013.59;;;4.92;100.00
64610;BME280;51019;46.090;6.350;2023-12-20T06:30:25;97084.81;;;5.43;100.00
64610;BME280;51019;46.090;6.350;2023-12-20T06:32:57;97023.16;;;4.91;100.00
64610;BME280;51019;46.090;6.350;2023-12-20T06:35:25;97070.38;;;5.39;100.00
64610;BME280;51019;46.090;6.350;2023-12-20T06:37:52;97018.13;;;5.02;100.00
64610;BME280;51019;46.090;6.350;2023-12-20T06:40:21;97027.06;;;5.25;100.00
64610;BME280;51019;46.090;6.350;2023-12-20T06:42:52;97075.25;;;5.70;100.00
64610;BME280;51019;46.090;6.350;2023-12-20T06:45:20;97014.72;;;5.29;100.00
64610;BME280;51019;46.090;6.350;2023-12-20T06:47:47;97026.22;;;5.25;100.00
64610;BME280;51019;46.090;6.350;2023-12-20T06:50:16;97043.81;;;5.34;100.00
64610;BME280;51019;46.090;6.350;2023-12-20T06:52:44;97011.31;;;5.14;100.00
64610;BME280;51019;46.090;6.350;2023-12-20T06:55:12;97080.66;;;5.67;100.00
64610;BME280;51019;46.090;6.350;2023-12-20T06:57:40;97070.19;;;5.81;100.00
64610;BME280;51019;46.090;6.350;2023-12-20T07:00:14;96987.19;;;5.12;100.00
64610;BME280;51019;46.090;6.350;2023-12-20T07:02:42;96957.53;;;5.02;100.00
64610;BME280;51019;46.090;6.350;2023-12-20T07:05:13;96951.53;;;4.87;100.00
64610;BME280;51019;46.090;6.350;2023-12-20T07:07:47;97082.78;;;5.48;100.00
64610;BME280;51019;46.090;6.350;2023-12-20T07:10:17;97022.84;;;5.37;100.00
64610;BME280;51019;46.090;6.350;2023-12-20T07:12:46;96958.69;;;5.10;100.00
64610;BME280;51019;46.090;6.350;2023-12-20T07:15:14;97055.19;;;5.72;100.00
64610;BME280;51019;46.090;6.350;2023-12-20T07:17:42;97003.66;;;5.52;100.00
64610;BME280;51019;46.090;6.350;2023-12-20T07:20:10;97094.94;;;6.01;100.00
64610;BME280;51019;46.090;6.350;2023-12-20T07:22:38;97047.53;;;5.83;100.00
64610;BME280;51019;46.090;6.350;2023-12-20T07:25:10;96973.25;;;5.40;100.00
64610;BME280;51019;46.090;6.350;2023-12-20T07:27:37;96976.31;;;5.59;100.00
64610;BME280;51019;46.090;6.350;2023-12-20T07:30:06;96973.56;;;6.00;100.00
64610;BME280;51019;46.090;6.350;2023-12-20T07:32:33;97035.72;;;6.05;100.00
64610;BME280;51019;46.090;6.350;2023-12-20T07:35:00;97107.25;;;6.25;100.00
64610;BME280;51019;46.090;6.350;2023-12-20T07:37:30;97108.22;;;6.36;100.00
64610;BME280;51019;46.090;6.350;2023-12-20T07:39:57;97089.38;;;6.58;100.00
64610;BME280;51019;46.090;6.350;2023-12-20T07:42:26;97132.44;;;6.24;100.00
64610;BME280;51019;46.090;6.350;2023-12-20T07:44:54;97012.16;;;5.54;100.00
64610;BME280;51019;46.090;6.350;2023-12-20T07:47:21;97079.00;;;5.93;100.00
64610;BME280;51019;46.090;6.350;2023-12-20T07:49:48;97053.50;;;5.98;100.00
64610;BME280;51019;46.090;6.350;2023-12-20T07:52:17;97085.25;;;5.76;100.00
64610;BME280;51019;46.090;6.350;2023-12-20T07:54:44;97003.47;;;4.87;100.00
64610;BME280;51019;46.090;6.350;2023-12-20T07:57:12;97109.78;;;5.45;100.00
64610;BME280;51019;46.090;6.350;2023-12-20T07:59:41;97095.13;;;5.44;100.00
64610;BME280;51019;46.090;6.350;2023-12-20T08:02:09;97132.16;;;5.89;100.00
64610;BME280;51019;46.090;6.350;2023-12-20T08:04:37;97019.00;;;5.16;100.00
64610;BME280;51019;46.090;6.350;2023-12-20T08:07:04;97048.44;;;5.16;100.00
64610;BME280;51019;46.090;6.350;2023-12-20T08:09:33;97072.34;;;5.62;100.00
64610;BME280;51019;46.090;6.350;2023-12-20T08:12:02;97139.66;;;6.33;100.00
64610;BME280;51019;46.090;6.350;2023-12-20T08:14:30;97046.97;;;5.78;100.00
64610;BME280;51019;46.090;6.350;2023-12-20T08:16:59;97089.81;;;6.00;100.00
64610;BME280;51019;46.090;6.350;2023-12-20T08:19:27;97105.66;;;5.97;100.00
64610;BME280;51019;46.090;6.350;2023-12-20T08:21:55;97123.75;;;6.76;100.00
64610;BME280;51019;46.090;6.350;2023-12-20T08:24:22;97134.88;;;7.03;100.00
64610;BME280;51019;46.090;6.350;2023-12-20T08:26:49;97120.00;;;6.80;100.00
64610;BME280;51019;46.090;6.350;2023-12-20T08:29:16;97088.22;;;6.62;100.00
64610;BME280;51019;46.090;6.350;2023-12-20T08:31:43;97101.34;;;6.61;100.00
64610;BME280;51019;46.090;6.350;2023-12-20T08:34:14;97040.75;;;5.81;100.00
64610;BME280;51019;46.090;6.350;2023-12-20T08:36:42;97031.03;;;5.97;100.00
64610;BME280;51019;46.090;6.350;2023-12-20T08:39:09;97116.84;;;6.24;100.00
64610;BME280;51019;46.090;6.350;2023-12-20T08:41:37;97071.53;;;6.14;100.00
64610;BME280;51019;46.090;6.350;2023-12-20T08:44:04;97053.09;;;5.77;100.00
64610;BME280;51019;46.090;6.350;2023-12-20T08:46:32;97078.41;;;6.15;100.00
64610;BME280;51019;46.090;6.350;2023-12-20T08:49:01;97014.25;;;5.89;100.00
64610;BME280;51019;46.090;6.350;2023-12-20T08:51:31;97048.09;;;6.14;100.00
64610;BME280;51019;46.090;6.350;2023-12-20T08:53:59;97087.56;;;5.81;100.00
64610;BME280;51019;46.090;6.350;2023-12-20T08:56:26;97161.44;;;6.45;100.00
64610;BME280;51019;46.090;6.350;2023-12-20T08:58:53;97139.16;;;6.41;100.00
64610;BME280;51019;46.090;6.350;2023-12-20T09:01:20;97125.94;;;6.95;100.00
64610;BME280;51019;46.090;6.350;2023-12-20T09:03:48;97061.66;;;6.70;100.00
64610;BME280;51019;46.090;6.350;2023-12-20T09:06:15;97165.09;;;7.68;100.00
64610;BME280;51019;46.090;6.350;2023-12-20T09:08:49;97045.66;;;7.00;100.00
64610;BME280;51019;46.090;6.350;2023-12-20T09:11:18;97116.97;;;7.35;100.00
64610;BME280;51019;46.090;6.350;2023-12-20T09:13:47;97106.63;;;7.70;100.00
64610;BME280;51019;46.090;6.350;2023-12-20T09:16:18;97141.03;;;7.51;100.00
64610;BME280;51019;46.090;6.350;2023-12-20T09:18:59;97147.94;;;6.65;100.00
64610;BME280;51019;46.090;6.350;2023-12-20T09:21:31;97066.81;;;5.94;100.00
64610;BME280;51019;46.090;6.350;2023-12-20T09:24:09;97069.97;;;6.24;100.00
64610;BME280;51019;46.090;6.350;2023-12-20T09:26:51;97098.38;;;7.03;100.00
64610;BME280;51019;46.090;6.350;2023-12-20T09:29:24;97045.59;;;6.76;100.00
64610;BME280;51019;46.090;6.350;2023-12-20T09:32:00;97123.88;;;7.36;100.00
64610;BME280;51019;46.090;6.350;2023-12-20T09:34:31;97046.09;;;6.81;100.00
64610;BME280;51019;46.090;6.350;2023-12-20T09:37:05;97093.25;;;7.14;100.00
64610;BME280;51019;46.090;6.350;2023-12-20T09:39:57;97165.19;;;7.79;100.00
64610;BME280;51019;46.090;6.350;2023-12-20T09:42:57;97034.69;;;6.45;100.00
64610;BME280;51019;46.090;6.350;2023-12-20T09:45:45;97036.59;;;6.92;100.00
64610;BME280;51019;46.090;6.350;2023-12-20T09:51:31;97136.50;;;7.29;100.00
64610;BME280;51019;46.090;6.350;2023-12-20T09:54:13;97178.59;;;7.85;100.00
64610;BME280;51019;46.090;6.350;2023-12-20T10:02:49;97133.03;;;7.78;100.00
64610;BME280;51019;46.090;6.350;2023-12-20T10:05:44;97088.06;;;8.10;100.00
64610;BME280;51019;46.090;6.350;2023-12-20T10:08:15;97043.66;;;7.63;100.00
64610;BME280;51019;46.090;6.350;2023-12-20T10:11:05;97103.03;;;7.84;100.00
64610;BME280;51019;46.090;6.350;2023-12-20T10:14:12;97144.56;;;8.34;100.00
64610;BME280;51019;46.090;6.350;2023-12-20T10:17:03;97028.19;;;7.13;100.00
64610;BME280;51019;46.090;6.350;2023-12-20T10:20:02;97070.41;;;7.78;100.00
64610;BME280;51019;46.090;6.350;2023-12-20T10:24:15;97017.72;;;7.73;100.00
64610;BME280;51019;46.090;6.350;2023-12-20T10:25:25;97028.97;;;7.74;100.00
64610;BME280;51019;46.090;6.350;2023-12-20T10:28:10;97024.16;;;7.56;100.00
64610;BME280;51019;46.090;6.350;2023-12-20T10:30:42;97092.03;;;7.68;100.00
64610;BME280;51019;46.090;6.350;2023-12-20T10:33:13;97011.72;;;7.60;100.00
64610;BME280;51019;46.090;6.350;2023-12-20T10:36:05;97082.63;;;7.78;100.00
64610;BME280;51019;46.090;6.350;2023-12-20T10:38:38;97019.84;;;7.44;100.00
64610;BME280;51019;46.090;6.350;2023-12-20T10:41:09;97014.41;;;7.82;100.00
64610;BME280;51019;46.090;6.350;2023-12-20T10:43:45;97074.44;;;8.52;100.00
64610;BME280;51019;46.090;6.350;2023-12-20T10:46:20;96998.47;;;7.39;100.00
64610;BME280;51019;46.090;6.350;2023-12-20T10:48:59;97011.72;;;7.60;100.00
64610;BME280;51019;46.090;6.350;2023-12-20T10:51:34;96998.88;;;6.98;100.00
64610;BME280;51019;46.090;6.350;2023-12-20T10:54:06;96993.66;;;6.98;100.00
64610;BME280;51019;46.090;6.350;2023-12-20T10:56:38;97101.00;;;8.35;100.00
64610;BME280;51019;46.090;6.350;2023-12-20T10:59:27;96995.91;;;7.74;100.00
64610;BME280;51019;46.090;6.350;2023-12-20T11:02:21;96989.88;;;7.50;100.00
64610;BME280;51019;46.090;6.350;2023-12-20T11:05:06;96973.25;;;7.16;100.00
64610;BME280;51019;46.090;6.350;2023-12-20T11:07:52;96982.22;;;8.17;100.00
64610;BME280;51019;46.090;6.350;2023-12-20T11:11:04;97097.97;;;9.84;100.00
64610;BME280;51019;46.090;6.350;2023-12-20T11:14:22;97088.75;;;10.33;100.00
64610;BME280;51019;46.090;6.350;2023-12-20T11:23:37;96998.16;;;9.14;100.00
64610;BME280;51019;46.090;6.350;2023-12-20T11:26:22;97042.97;;;8.87;100.00
64610;BME280;51019;46.090;6.350;2023-12-20T11:29:31;97094.97;;;9.46;100.00
64610;BME280;51019;46.090;6.350;2023-12-20T11:35:36;96978.84;;;8.61;100.00
64610;BME280;51019;46.090;6.350;2023-12-20T11:38:12;97019.31;;;8.33;100.00
64610;BME280;51019;46.090;6.350;2023-12-20T11:44:13;97024.13;;;9.27;100.00
64610;BME280;51019;46.090;6.350;2023-12-20T11:47:01;96958.03;;;8.70;100.00
64610;BME280;51019;46.090;6.350;2023-12-20T11:52:52;97009.47;;;8.70;100.00
64610;BME280;51019;46.090;6.350;2023-12-20T11:55:33;96985.09;;;8.81;100.00
64610;BME280;51019;46.090;6.350;2023-12-20T11:58:11;96993.88;;;9.13;100.00
64610;BME280;51019;46.090;6.350;2023-12-20T12:00:49;97010.03;;;9.07;100.00
64610;BME280;51019;46.090;6.350;2023-12-20T12:03:29;97080.84;;;9.15;100.00
64610;BME280;51019;46.090;6.350;2023-12-20T12:06:10;96989.88;;;8.64;100.00
64610;BME280;51019;46.090;6.350;2023-12-20T12:08:49;97026.34;;;8.99;100.00
64610;BME280;51019;46.090;6.350;2023-12-20T12:11:22;96990.34;;;8.81;100.00
64610;BME280;51019;46.090;6.350;2023-12-20T12:14:07;96932.19;;;8.56;100.00
64610;BME280;51019;46.090;6.350;2023-12-20T12:16:44;97052.25;;;9.57;100.00
64610;BME280;51019;46.090;6.350;2023-12-20T12:19:23;97026.09;;;9.14;100.00
64610;BME280;51019;46.090;6.350;2023-12-20T12:22:11;96987.59;;;8.82;100.00
64610;BME280;51019;46.090;6.350;2023-12-20T12:27:57;96957.22;;;8.59;100.00
64610;BME280;51019;46.090;6.350;2023-12-20T12:30:30;97011.47;;;9.11;100.00
64610;BME280;51019;46.090;6.350;2023-12-20T12:33:14;97049.69;;;9.34;100.00
64610;BME280;51019;46.090;6.350;2023-12-20T12:35:42;96973.84;;;8.47;100.00
64610;BME280;51019;46.090;6.350;2023-12-20T12:38:36;96921.22;;;8.29;100.00
64610;BME280;51019;46.090;6.350;2023-12-20T12:41:23;97004.59;;;8.32;100.00
64610;BME280;51019;46.090;6.350;2023-12-20T12:43:51;97041.41;;;8.40;100.00
64610;BME280;51019;46.090;6.350;2023-12-20T12:53:04;96992.97;;;8.47;100.00
64610;BME280;51019;46.090;6.350;2023-12-20T12:55:51;96996.09;;;8.06;100.00
64610;BME280;51019;46.090;6.350;2023-12-20T12:58:30;96938.56;;;8.08;100.00
64610;BME280;51019;46.090;6.350;2023-12-20T13:01:07;96980.84;;;8.24;100.00
64610;BME280;51019;46.090;6.350;2023-12-20T13:03:51;97051.44;;;8.68;100.00
64610;BME280;51019;46.090;6.350;2023-12-20T13:06:53;96980.38;;;8.74;100.00
64610;BME280;51019;46.090;6.350;2023-12-20T13:09:26;97002.53;;;9.25;100.00
64610;BME280;51019;46.090;6.350;2023-12-20T13:11:59;96991.53;;;9.42;100.00
64610;BME280;51019;46.090;6.350;2023-12-20T13:15:00;97059.84;;;9.60;100.00
64610;BME280;51019;46.090;6.350;2023-12-20T13:21:07;96941.94;;;8.32;100.00
64610;BME280;51019;46.090;6.350;2023-12-20T13:23:48;97069.31;;;9.29;100.00
64610;BME280;51019;46.090;6.350;2023-12-20T13:26:48;96950.81;;;9.17;100.00
64610;BME280;51019;46.090;6.350;2023-12-20T13:30:04;97023.16;;;9.71;100.00
64610;BME280;51019;46.090;6.350;2023-12-20T13:32:48;97071.50;;;9.67;100.00
64610;BME280;51019;46.090;6.350;2023-12-20T13:35:58;96942.75;;;9.09;100.00
64610;BME280;51019;46.090;6.350;2023-12-20T13:39:08;96946.34;;;8.97;100.00
64610;BME280;51019;46.090;6.350;2023-12-20T13:42:37;97045.97;;;9.37;100.00
64610;BME280;51019;46.090;6.350;2023-12-20T13:45:57;96973.09;;;9.00;100.00
64610;BME280;51019;46.090;6.350;2023-12-20T13:51:30;96977.75;;;8.74;100.00
64610;BME280;51019;46.090;6.350;2023-12-20T13:53:57;97069.94;;;9.10;100.00
64610;BME280;51019;46.090;6.350;2023-12-20T13:56:30;97046.66;;;8.73;100.00
64610;BME280;51019;46.090;6.350;2023-12-20T14:02:23;97033.91;;;9.68;100.00
64610;BME280;51019;46.090;6.350;2023-12-20T14:04:58;96974.22;;;8.64;100.00
64610;BME280;51019;46.090;6.350;2023-12-20T14:08:25;97084.91;;;9.19;100.00
64610;BME280;51019;46.090;6.350;2023-12-20T14:10:57;97101.72;;;9.48;100.00
64610;BME280;51019;46.090;6.350;2023-12-20T14:14:20;96972.88;;;8.70;100.00
64610;BME280;51019;46.090;6.350;2023-12-20T14:23:31;96996.59;;;9.55;100.00
64610;BME280;51019;46.090;6.350;2023-12-20T14:26:22;97059.22;;;9.24;100.00
64610;BME280;51019;46.090;6.350;2023-12-20T14:29:28;97055.31;;;9.07;100.00
64610;BME280;51019;46.090;6.350;2023-12-20T14:32:38;97037.88;;;8.86;100.00
64610;BME280;51019;46.090;6.350;2023-12-20T14:42:13;97106.19;;;9.03;100.00
64610;BME280;51019;46.090;6.350;2023-12-20T14:44:58;97057.91;;;9.19;100.00